createdAt,value
2022-10-13T00:00:47.708Z,87.70
2022-10-13T00:03:16.120Z,87.70
2022-10-13T00:05:45.843Z,87.70
2022-10-13T00:08:15.566Z,87.60
2022-10-13T00:10:43.761Z,87.70
2022-10-13T00:13:15.245Z,87.80
2022-10-13T00:15:44.722Z,87.60
2022-10-13T00:18:12.813Z,87.70
2022-10-13T00:20:43.636Z,87.70
2022-10-13T00:23:11.914Z,87.70
2022-10-13T00:25:43.554Z,87.70
2022-10-13T00:28:14.805Z,87.70
2022-10-13T00:30:43.309Z,87.80
2022-10-13T00:33:12.462Z,87.80
2022-10-13T00:35:45.020Z,87.80
2022-10-13T00:38:14.316Z,87.80
2022-10-13T00:40:47.093Z,87.80
2022-10-13T00:43:19.765Z,87.80
2022-10-13T00:45:49.966Z,87.80
2022-10-13T00:48:20.269Z,88.00
2022-10-13T00:50:48.659Z,87.90
2022-10-13T00:53:19.474Z,88.00
2022-10-13T00:55:51.089Z,88.10
2022-10-13T00:58:24.325Z,88.00
2022-10-13T01:00:54.174Z,88.70
2022-10-13T01:03:22.859Z,87.80
2022-10-13T01:05:52.402Z,88.00
2022-10-13T01:08:22.272Z,87.90
2022-10-13T01:10:59.912Z,87.80
2022-10-13T01:13:37.071Z,88.00
2022-10-13T01:16:14.276Z,87.90
2022-10-13T01:18:47.638Z,88.00
2022-10-13T01:21:23.717Z,87.60
2022-10-13T01:24:21.230Z,87.90
2022-10-13T01:27:06.807Z,87.70
2022-10-13T01:30:07.920Z,87.70
2022-10-13T01:32:52.581Z,87.80
2022-10-13T01:35:28.466Z,87.70
2022-10-13T01:38:01.232Z,87.80
2022-10-13T01:40:33.352Z,87.70
2022-10-13T01:43:08.002Z,87.70
2022-10-13T01:45:41.353Z,87.70
2022-10-13T01:48:10.823Z,88.00
2022-10-13T01:50:40.273Z,88.40
2022-10-13T01:53:09.867Z,87.80
2022-10-13T01:55:37.873Z,87.70
2022-10-13T01:58:05.826Z,87.70
2022-10-13T02:00:46.958Z,87.70
2022-10-13T02:03:22.257Z,87.70
2022-10-13T02:05:58.715Z,87.60
2022-10-13T02:08:33.929Z,87.60
2022-10-13T02:11:12.123Z,87.80
2022-10-13T02:13:42.837Z,87.70
2022-10-13T02:16:14.602Z,87.70
2022-10-13T02:18:43.869Z,87.70
2022-10-13T02:21:12.507Z,87.80
2022-10-13T02:23:40.538Z,87.80
2022-10-13T02:26:08.476Z,87.80
2022-10-13T02:28:38.394Z,87.70
2022-10-13T02:31:08.560Z,87.70
2022-10-13T02:33:38.547Z,87.70
2022-10-13T02:36:06.569Z,87.70
2022-10-13T02:38:34.685Z,87.70
2022-10-13T02:41:03.090Z,87.80
2022-10-13T02:43:31.125Z,88.70
2022-10-13T02:45:59.223Z,87.80
2022-10-13T02:48:27.205Z,87.80
2022-10-13T02:50:56.636Z,87.80
2022-10-13T02:53:24.716Z,87.80
2022-10-13T02:55:52.668Z,87.80
2022-10-13T02:58:20.668Z,87.90
2022-10-13T03:00:48.900Z,87.80
2022-10-13T03:03:17.625Z,88.00
2022-10-13T03:05:48.183Z,88.00
2022-10-13T03:08:17.494Z,87.80
2022-10-13T03:10:45.457Z,87.80
2022-10-13T03:13:13.431Z,87.90
2022-10-13T03:15:41.409Z,87.90
2022-10-13T03:18:09.688Z,87.90
2022-10-13T03:20:37.568Z,88.90
2022-10-13T03:23:06.865Z,88.00
2022-10-13T03:25:36.499Z,88.20
2022-10-13T03:28:04.589Z,88.00
2022-10-13T03:30:32.606Z,88.00
2022-10-13T03:33:02.706Z,88.00
2022-10-13T03:35:31.085Z,88.10
2022-10-13T03:37:59.193Z,88.10
2022-10-13T03:40:27.173Z,88.00
2022-10-13T03:42:56.582Z,88.00
2022-10-13T03:45:24.423Z,88.10
2022-10-13T03:47:54.520Z,88.00
2022-10-13T03:50:22.705Z,88.10
2022-10-13T03:52:51.043Z,88.00
2022-10-13T03:55:19.188Z,88.20
2022-10-13T03:57:47.031Z,88.10
2022-10-13T04:00:17.686Z,88.20
2022-10-13T04:02:45.631Z,88.20
2022-10-13T04:05:14.058Z,88.10
2022-10-13T04:07:42.024Z,88.20
2022-10-13T04:10:11.762Z,88.10
2022-10-13T04:12:39.904Z,88.10
2022-10-13T04:15:09.431Z,88.20
2022-10-13T04:17:39.020Z,88.20
2022-10-13T04:20:08.586Z,88.20
2022-10-13T04:22:36.875Z,88.20
2022-10-13T04:25:05.419Z,88.20
2022-10-13T04:27:33.633Z,88.30
2022-10-13T04:30:02.104Z,88.20
2022-10-13T04:32:30.169Z,88.20
2022-10-13T04:34:59.946Z,88.30
2022-10-13T04:37:27.972Z,88.30
2022-10-13T04:39:57.841Z,88.30
2022-10-13T04:42:25.672Z,88.30
2022-10-13T04:44:53.505Z,88.30
2022-10-13T04:47:21.727Z,88.40
2022-10-13T04:49:49.773Z,88.40
2022-10-13T04:52:19.307Z,88.40
2022-10-13T04:54:47.332Z,88.40
2022-10-13T04:57:15.148Z,88.40
2022-10-13T04:59:42.953Z,88.40
2022-10-13T05:02:10.737Z,88.40
2022-10-13T05:04:38.852Z,88.40
2022-10-13T05:07:17.425Z,88.50
2022-10-13T05:09:47.750Z,88.40
2022-10-13T05:12:16.193Z,88.50
2022-10-13T05:14:43.977Z,88.40
2022-10-13T05:17:11.735Z,88.50
2022-10-13T05:19:39.577Z,88.30
2022-10-13T05:22:07.689Z,88.50
2022-10-13T05:24:37.370Z,88.50
2022-10-13T05:27:10.368Z,88.50
2022-10-13T05:29:38.955Z,88.50
2022-10-13T05:32:07.029Z,88.50
2022-10-13T05:34:35.091Z,88.50
2022-10-13T05:37:03.140Z,88.40
2022-10-13T05:39:30.919Z,88.50
2022-10-13T05:41:58.750Z,88.50
2022-10-13T05:44:28.461Z,88.40
2022-10-13T05:46:56.415Z,88.50
2022-10-13T05:49:24.294Z,88.50
2022-10-13T05:51:56.272Z,88.40
2022-10-13T05:54:30.086Z,88.50
2022-10-13T05:57:01.208Z,88.60
2022-10-13T05:59:34.216Z,88.40
2022-10-13T06:02:03.171Z,88.50
2022-10-13T06:04:35.750Z,88.50
2022-10-13T06:07:03.748Z,88.50
2022-10-13T06:09:38.259Z,88.50
2022-10-13T06:12:06.762Z,88.50
2022-10-13T06:14:36.213Z,88.50
2022-10-13T06:17:04.223Z,88.60
2022-10-13T06:19:32.093Z,88.50
2022-10-13T06:22:03.397Z,88.40
2022-10-13T06:24:31.657Z,88.40
2022-10-13T06:26:59.437Z,88.50
2022-10-13T06:29:27.374Z,88.40
2022-10-13T06:31:56.514Z,88.40
2022-10-13T06:34:24.538Z,88.50
2022-10-13T06:36:52.756Z,88.40
2022-10-13T06:39:20.884Z,88.40
2022-10-13T06:41:48.787Z,88.40
2022-10-13T06:44:16.639Z,88.40
2022-10-13T06:46:44.407Z,88.30
2022-10-13T06:49:13.757Z,88.40
2022-10-13T06:51:41.583Z,88.30
2022-10-13T06:54:09.376Z,88.40
2022-10-13T06:56:37.193Z,88.20
2022-10-13T06:59:04.984Z,88.20
2022-10-13T07:01:34.238Z,88.30
2022-10-13T07:04:03.677Z,88.20
2022-10-13T07:06:33.097Z,88.10
2022-10-13T07:09:04.298Z,88.00
2022-10-13T07:11:32.282Z,88.10
2022-10-13T07:16:28.113Z,88.00
2022-10-13T07:18:56.018Z,87.90
2022-10-13T07:21:23.920Z,87.80
2022-10-13T07:23:53.087Z,87.60
2022-10-13T07:26:21.502Z,87.40
2022-10-13T07:28:49.904Z,87.30
2022-10-13T07:31:19.726Z,87.20
2022-10-13T07:33:50.810Z,87.10
2022-10-13T07:36:19.581Z,87.10
2022-10-13T07:38:48.005Z,87.10
2022-10-13T07:41:17.251Z,87.00
2022-10-13T07:43:45.320Z,86.80
2022-10-13T07:46:14.213Z,86.80
2022-10-13T07:48:42.460Z,86.80
2022-10-13T07:51:13.601Z,86.70
2022-10-13T07:53:42.811Z,86.70
2022-10-13T07:56:13.079Z,86.80
2022-10-13T07:58:44.738Z,86.60
2022-10-13T08:01:13.542Z,86.80
2022-10-13T08:03:45.593Z,86.90
2022-10-13T08:06:17.217Z,87.10
2022-10-13T08:08:45.034Z,87.40
2022-10-13T08:11:16.751Z,87.80
2022-10-13T08:13:49.971Z,87.70
2022-10-13T08:16:18.864Z,88.00
2022-10-13T08:18:47.425Z,87.90
2022-10-13T08:24:06.183Z,88.60
2022-10-13T08:26:34.517Z,88.70
2022-10-13T08:29:20.742Z,88.70
2022-10-13T08:34:16.784Z,88.50
2022-10-13T08:36:44.638Z,88.70
2022-10-13T08:39:13.945Z,88.70
2022-10-13T08:41:44.844Z,88.50
2022-10-13T08:47:19.194Z,88.90
2022-10-13T08:49:47.673Z,89.10
2022-10-13T08:52:22.646Z,88.90
2022-10-13T08:54:51.483Z,89.20
2022-10-13T08:57:19.952Z,89.50
2022-10-13T08:59:51.192Z,90.20
2022-10-13T09:02:25.219Z,89.60
2022-10-13T09:04:54.975Z,89.30
2022-10-13T09:07:27.248Z,89.70
2022-10-13T09:09:56.429Z,90.00
2022-10-13T09:12:25.565Z,90.00
2022-10-13T09:15:05.137Z,89.70
2022-10-13T09:17:36.600Z,89.70
2022-10-13T09:20:07.766Z,89.20
2022-10-13T09:22:38.624Z,89.20
2022-10-13T09:25:19.406Z,88.80
2022-10-13T09:27:50.168Z,89.20
2022-10-13T09:30:33.048Z,89.40
2022-10-13T09:33:22.173Z,89.50
2022-10-13T09:36:07.394Z,89.20
2022-10-13T09:38:36.946Z,89.40
2022-10-13T09:41:07.952Z,89.30
2022-10-13T09:43:38.241Z,89.20
2022-10-13T09:46:21.831Z,89.30
2022-10-13T09:48:52.145Z,89.10
2022-10-13T09:51:39.418Z,89.50
2022-10-13T09:54:24.759Z,89.20
2022-10-13T09:56:56.715Z,89.00
2022-10-13T09:59:33.198Z,89.60
2022-10-13T10:02:19.356Z,89.10
2022-10-13T10:04:50.937Z,89.10
2022-10-13T10:07:22.300Z,89.60
2022-10-13T10:09:54.238Z,89.80
2022-10-13T10:12:27.706Z,89.80
2022-10-13T10:14:59.224Z,89.60
2022-10-13T10:17:34.852Z,89.60
2022-10-13T10:20:16.758Z,89.50
2022-10-13T10:22:53.791Z,89.30
2022-10-13T10:25:32.994Z,89.20
2022-10-13T10:28:28.722Z,89.50
2022-10-13T10:31:12.845Z,89.80
2022-10-13T10:33:50.541Z,89.50
2022-10-13T10:36:25.532Z,89.40
2022-10-13T10:38:57.053Z,89.30
2022-10-13T10:41:39.750Z,89.40
2022-10-13T10:44:12.843Z,89.20
2022-10-13T10:46:46.477Z,89.40
2022-10-13T10:49:21.048Z,89.10
2022-10-13T10:51:49.638Z,89.10
2022-10-13T10:54:26.269Z,89.20
2022-10-13T10:56:59.557Z,89.50
2022-10-13T10:59:40.283Z,89.50
2022-10-13T11:02:35.775Z,89.30
2022-10-13T11:05:06.539Z,89.20
2022-10-13T11:07:58.293Z,89.30
2022-10-13T11:10:27.421Z,89.10
2022-10-13T11:13:28.014Z,89.30
2022-10-13T11:15:56.574Z,89.60
2022-10-13T11:19:05.534Z,89.50
2022-10-13T11:22:24.885Z,89.40
2022-10-13T11:25:26.678Z,89.10
2022-10-13T11:27:58.102Z,89.20
2022-10-13T11:30:43.404Z,89.30
2022-10-13T11:33:54.822Z,89.60
2022-10-13T11:36:56.695Z,89.20
2022-10-13T11:40:04.692Z,89.00
2022-10-13T11:43:08.567Z,88.80
2022-10-13T11:46:07.598Z,89.40
2022-10-13T11:49:19.724Z,89.30
2022-10-13T11:52:12.235Z,89.20
2022-10-13T11:54:47.731Z,89.30
2022-10-13T11:57:23.591Z,89.20
2022-10-13T11:59:55.432Z,88.80
2022-10-13T12:02:31.399Z,88.90
2022-10-13T12:05:05.360Z,89.00
2022-10-13T12:07:37.235Z,89.20
2022-10-13T12:10:10.878Z,89.00
2022-10-13T12:12:39.007Z,89.00
2022-10-13T12:15:31.014Z,88.70
2022-10-13T12:18:00.864Z,89.10
2022-10-13T12:20:31.300Z,89.00
2022-10-13T12:22:59.460Z,89.10
2022-10-13T12:25:33.224Z,90.10
2022-10-13T12:28:04.454Z,89.50
2022-10-13T12:30:45.054Z,89.20
2022-10-13T12:33:27.680Z,89.20
2022-10-13T12:36:11.877Z,89.20
2022-10-13T12:38:53.324Z,89.30
2022-10-13T12:41:38.738Z,89.30
2022-10-13T12:44:20.596Z,89.30
2022-10-13T12:47:01.651Z,89.20
2022-10-13T12:49:55.626Z,88.90
2022-10-13T12:52:28.029Z,89.10
2022-10-13T12:54:59.309Z,89.20
2022-10-13T12:57:36.305Z,89.20
2022-10-13T13:00:05.766Z,89.10
2022-10-13T13:02:37.927Z,89.20
2022-10-13T13:05:42.382Z,89.00
2022-10-13T13:08:31.785Z,88.50
2022-10-13T13:11:14.244Z,88.80
2022-10-13T13:13:45.522Z,88.70
2022-10-13T13:16:23.481Z,88.50
2022-10-13T13:18:57.303Z,88.70
2022-10-13T13:21:30.589Z,88.40
2022-10-13T13:23:59.441Z,88.40
2022-10-13T13:26:31.382Z,88.40
2022-10-13T13:29:03.818Z,88.60
2022-10-13T13:31:33.236Z,89.40
2022-10-13T13:34:01.845Z,88.40
2022-10-13T13:36:38.911Z,88.20
2022-10-13T13:39:09.839Z,88.30
2022-10-13T13:41:40.185Z,88.20
2022-10-13T13:44:21.457Z,88.20
2022-10-13T13:46:53.708Z,88.20
2022-10-13T13:49:23.248Z,88.10
2022-10-13T13:51:52.688Z,88.20
2022-10-13T13:54:25.751Z,88.00
2022-10-13T13:56:59.102Z,87.90
2022-10-13T13:59:28.806Z,87.70
2022-10-13T14:02:15.910Z,88.60
2022-10-13T14:04:51.604Z,88.00
2022-10-13T14:07:26.175Z,88.00
2022-10-13T14:10:09.103Z,88.00
2022-10-13T14:12:41.782Z,88.00
2022-10-13T14:15:16.224Z,88.00
2022-10-13T14:17:48.581Z,87.90
2022-10-13T14:20:23.316Z,87.80
2022-10-13T14:23:02.588Z,87.70
2022-10-13T14:25:34.466Z,87.60
2022-10-13T14:28:18.493Z,87.60
2022-10-13T14:30:55.164Z,87.50
2022-10-13T14:33:24.064Z,87.50
2022-10-13T14:36:05.366Z,87.40
2022-10-13T14:38:56.174Z,87.50
2022-10-13T14:41:32.769Z,87.50
2022-10-13T14:46:44.697Z,87.30
2022-10-13T14:49:16.621Z,87.30
2022-10-13T14:51:50.180Z,87.50
2022-10-13T14:54:20.557Z,87.50
2022-10-13T14:56:55.873Z,87.20
2022-10-13T14:59:30.858Z,87.30
2022-10-13T15:02:04.599Z,87.30
2022-10-13T15:04:32.399Z,87.30
2022-10-13T15:07:00.347Z,87.30
2022-10-13T15:09:44.948Z,87.10
2022-10-13T15:12:18.511Z,87.00
2022-10-13T15:14:46.933Z,87.70
2022-10-13T15:17:14.933Z,87.00
2022-10-13T15:19:43.131Z,87.00
2022-10-13T15:22:11.604Z,86.90
2022-10-13T15:24:40.715Z,87.00
2022-10-13T15:27:08.861Z,87.00
2022-10-13T15:29:36.714Z,88.00
2022-10-13T15:32:10.008Z,87.20
2022-10-13T15:34:39.478Z,86.80
2022-10-13T15:37:07.524Z,86.10
2022-10-13T15:39:35.386Z,85.80
2022-10-13T15:42:05.551Z,85.40
2022-10-13T15:44:51.313Z,85.30
2022-10-13T15:47:21.475Z,85.00
2022-10-13T15:49:49.458Z,84.70
2022-10-13T15:55:31.868Z,84.70
2022-10-13T15:58:51.896Z,84.90
2022-10-13T16:02:03.502Z,85.00
2022-10-13T16:10:19.177Z,85.40
2022-10-13T16:15:15.945Z,85.60
2022-10-13T16:18:09.973Z,86.40
2022-10-13T16:21:21.934Z,85.70
2022-10-13T16:24:18.008Z,85.90
2022-10-13T16:27:32.309Z,86.00
2022-10-13T16:30:51.643Z,85.90
2022-10-13T16:37:03.716Z,86.00
2022-10-13T16:40:00.444Z,86.10
2022-10-13T16:42:53.953Z,86.20
2022-10-13T16:45:59.288Z,86.10
2022-10-13T16:48:30.820Z,86.20
2022-10-13T16:51:19.710Z,86.20
2022-10-13T16:54:04.500Z,86.30
2022-10-13T16:56:40.787Z,86.30
2022-10-13T17:00:11.440Z,86.30
2022-10-13T17:03:51.451Z,86.30
2022-10-13T17:13:02.523Z,86.50
2022-10-13T17:16:29.738Z,86.60
2022-10-13T17:23:43.551Z,86.80
2022-10-13T17:33:47.683Z,87.00
2022-10-13T17:37:25.606Z,87.00
2022-10-13T17:40:35.165Z,87.10
2022-10-13T17:43:54.821Z,87.20
2022-10-13T17:46:54.967Z,87.30
2022-10-13T17:50:19.052Z,87.30
2022-10-13T17:53:04.790Z,87.30
2022-10-13T17:56:07.605Z,87.50
2022-10-13T17:59:13.130Z,87.60
2022-10-13T18:02:11.877Z,87.70
2022-10-13T18:04:52.390Z,88.50
2022-10-13T18:07:44.651Z,87.80
2022-10-13T18:10:19.845Z,88.60
2022-10-13T18:13:27.993Z,87.90
2022-10-13T18:16:25.184Z,88.00
2022-10-13T18:19:43.439Z,88.20
2022-10-13T18:23:03.990Z,88.20
2022-10-13T18:25:47.211Z,88.20
2022-10-13T18:28:25.055Z,88.30
2022-10-13T18:30:59.451Z,88.40
2022-10-13T18:34:02.176Z,88.40
2022-10-13T18:36:57.939Z,88.40
2022-10-13T18:39:40.971Z,88.40
2022-10-13T18:42:54.225Z,88.50
2022-10-13T18:45:32.239Z,88.50
2022-10-13T18:48:09.350Z,88.60
2022-10-13T18:50:45.891Z,88.40
2022-10-13T18:53:29.290Z,88.50
2022-10-13T18:56:18.475Z,88.60
2022-10-13T18:59:04.048Z,88.40
2022-10-13T19:02:04.329Z,88.50
2022-10-13T19:04:41.542Z,88.40
2022-10-13T19:07:40.723Z,88.50
2022-10-13T19:10:11.573Z,88.50
2022-10-13T19:12:54.870Z,88.50
2022-10-13T19:15:36.627Z,88.40
2022-10-13T19:18:17.844Z,88.40
2022-10-13T19:20:53.271Z,88.50
2022-10-13T19:23:49.001Z,88.50
2022-10-13T19:26:21.335Z,89.40
2022-10-13T19:28:59.714Z,88.70
2022-10-13T19:31:30.534Z,88.70
2022-10-13T19:34:15.030Z,88.70
2022-10-13T19:36:54.377Z,88.90
2022-10-13T19:39:26.597Z,88.80
2022-10-13T19:41:59.573Z,88.80
2022-10-13T19:44:30.912Z,88.70
2022-10-13T19:47:03.882Z,88.90
2022-10-13T19:49:40.029Z,88.90
2022-10-13T19:52:23.218Z,88.90
2022-10-13T19:54:54.543Z,88.80
2022-10-13T19:57:23.248Z,88.80
2022-10-13T19:59:53.957Z,89.00
2022-10-13T20:02:24.236Z,89.10
2022-10-13T20:04:53.986Z,89.10
2022-10-13T20:07:22.508Z,89.10
2022-10-13T20:09:54.099Z,89.20
2022-10-13T20:12:22.989Z,89.30
2022-10-13T20:14:51.061Z,89.30
2022-10-13T20:17:19.563Z,89.30
2022-10-13T20:19:49.621Z,89.30
2022-10-13T20:22:21.843Z,90.00
2022-10-13T20:24:50.739Z,89.30
2022-10-13T20:27:19.993Z,89.40
2022-10-13T20:29:48.484Z,89.30
2022-10-13T20:32:20.129Z,89.40
2022-10-13T20:34:52.635Z,89.40
2022-10-13T20:37:22.670Z,89.50
2022-10-13T20:39:51.140Z,89.40
2022-10-13T20:42:19.244Z,89.30
2022-10-13T20:44:47.265Z,89.30
2022-10-13T20:47:15.334Z,89.30
2022-10-13T20:49:43.504Z,89.30
2022-10-13T20:52:13.505Z,89.30
2022-10-13T20:54:43.395Z,89.30
2022-10-13T20:57:11.626Z,89.30
2022-10-13T20:59:40.174Z,89.30
2022-10-13T21:02:12.110Z,89.30
2022-10-13T21:04:40.733Z,89.40
2022-10-13T21:07:12.939Z,89.40
2022-10-13T21:09:44.434Z,89.50
2022-10-13T21:12:12.686Z,89.40
2022-10-13T21:14:40.946Z,89.50
2022-10-13T21:17:12.058Z,89.50
2022-10-13T21:19:40.165Z,89.50
2022-10-13T21:22:08.582Z,89.50
2022-10-13T21:24:36.753Z,89.70
2022-10-13T21:27:07.989Z,89.60
2022-10-13T21:29:38.718Z,89.70
2022-10-13T21:32:11.079Z,89.60
2022-10-13T21:34:40.351Z,89.70
2022-10-13T21:37:08.462Z,89.70
2022-10-13T21:39:36.809Z,89.70
2022-10-13T21:42:10.090Z,89.70
2022-10-13T21:44:38.469Z,89.70
2022-10-13T21:47:06.990Z,89.80
2022-10-13T21:49:35.654Z,89.80
2022-10-13T21:52:05.770Z,89.80
2022-10-13T21:54:34.344Z,89.80
2022-10-13T21:57:02.618Z,89.90
2022-10-13T21:59:35.829Z,89.90
2022-10-13T22:02:03.952Z,89.90
2022-10-13T22:04:34.246Z,89.80
2022-10-13T22:07:04.243Z,89.90
2022-10-13T22:09:32.806Z,89.80
2022-10-13T22:12:05.921Z,89.90
2022-10-13T22:14:38.552Z,90.00
2022-10-13T22:17:08.596Z,90.00
2022-10-13T22:19:37.036Z,89.90
2022-10-13T22:22:05.347Z,89.90
2022-10-13T22:24:33.632Z,90.00
2022-10-13T22:27:02.250Z,89.90
2022-10-13T22:29:32.885Z,90.00
2022-10-13T22:32:02.354Z,90.00
2022-10-13T22:34:32.904Z,90.00
2022-10-13T22:37:01.385Z,90.00
2022-10-13T22:39:29.695Z,89.90
2022-10-13T22:41:57.915Z,90.30
2022-10-13T22:44:26.657Z,90.00
2022-10-13T22:46:54.849Z,89.90
2022-10-13T22:49:24.754Z,89.90
2022-10-13T22:51:53.292Z,90.00
2022-10-13T22:54:24.271Z,90.00
2022-10-13T22:56:52.443Z,89.90
2022-10-13T22:59:21.256Z,90.00
2022-10-13T23:01:51.123Z,89.90
2022-10-13T23:04:23.085Z,90.00
2022-10-13T23:06:53.154Z,90.00
2022-10-13T23:09:21.356Z,90.00
2022-10-13T23:11:55.110Z,90.00
2022-10-13T23:14:27.365Z,89.90
2022-10-13T23:16:55.393Z,89.90
2022-10-13T23:19:23.538Z,90.00
2022-10-13T23:21:53.220Z,89.90
2022-10-13T23:24:21.767Z,89.90
2022-10-13T23:26:50.014Z,90.00
2022-10-13T23:29:18.100Z,90.00
2022-10-13T23:31:56.654Z,90.00
2022-10-13T23:34:24.864Z,90.00
2022-10-13T23:36:54.776Z,90.00
2022-10-13T23:39:22.964Z,90.00
2022-10-13T23:41:51.048Z,90.00
2022-10-13T23:44:20.402Z,90.00
2022-10-13T23:46:59.892Z,90.00
2022-10-13T23:49:29.759Z,90.00
2022-10-13T23:51:59.478Z,90.00
2022-10-13T23:54:27.561Z,90.00
2022-10-13T23:56:55.990Z,90.00
2022-10-13T23:59:24.504Z,90.00
